Time;durP1;ratioP1;P1;durP2;ratioP2;P2;SDS_P1;SDS_P2;PMS_P1;PMS_P2;Temp;Humidity;BMP_temperature;BMP_pressure;BME280_temperature;BME280_humidity;BME280_pressure;Samples;Min_cycle;Max_cycle;Signal;HPM_P1;HPM_P2
2022/02/04 00:20:01;;;;;;;6.25;3.80;;;;;;;;;;4993721;28;20167;-51
2022/02/04 00:23:32;;;;;;;6.00;4.07;;;;;;;;;;4999478;28;20588;-51
2022/02/04 00:26:12;;;;;;;7.47;4.43;;;;;;;;;;4986221;28;20037;-52
2022/02/04 00:33:43;;;;;;;6.55;4.13;;;;;;;;;;4995005;28;20033;-51
2022/02/04 00:36:15;;;;;;;6.15;4.10;;;;;;;;;;5005284;28;20014;-52
2022/02/04 00:38:44;;;;;;;5.80;3.55;;;;;;;;;;5005392;28;20117;-51
2022/02/04 00:41:12;;;;;;;5.97;3.80;;;;;;;;;;5005339;28;20578;-51
2022/02/04 00:43:39;;;;;;;6.15;3.78;;;;;;;;;;4996588;28;20084;-54
2022/02/04 00:46:56;;;;;;;6.57;4.18;;;;;;;;;;4985679;28;20015;-52
2022/02/04 00:52:10;;;;;;;6.05;4.30;;;;;;;;;;4985120;28;20065;-51
2022/02/04 00:54:51;;;;;;;5.88;3.63;;;;;;;;;;5001994;28;20135;-52
2022/02/04 01:27:24;;;;;;;6.20;3.60;;;;;;;;;;4985373;28;20029;-51
2022/02/04 01:30:00;;;;;;;6.03;4.13;;;;;;;;;;4984657;28;20026;-51
2022/02/04 01:32:25;;;;;;;5.82;3.85;;;;;;;;;;4984678;28;20281;-51
2022/02/04 01:34:50;;;;;;;5.35;3.53;;;;;;;;;;5003420;28;20029;-51
2022/02/04 01:37:16;;;;;;;5.47;3.73;;;;;;;;;;5004682;28;20041;-51
2022/02/04 01:39:41;;;;;;;6.22;4.00;;;;;;;;;;5004352;28;20273;-51
2022/02/04 01:42:07;;;;;;;5.73;3.77;;;;;;;;;;5004480;28;20181;-51
2022/02/04 01:44:32;;;;;;;6.57;3.70;;;;;;;;;;4988157;28;20876;-52
2022/02/04 01:46:57;;;;;;;6.50;3.88;;;;;;;;;;4984469;28;20022;-50
2022/02/04 01:49:24;;;;;;;5.60;3.50;;;;;;;;;;4984655;28;20032;-51
2022/02/04 01:51:49;;;;;;;5.85;3.67;;;;;;;;;;4984445;28;20265;-52
2022/02/04 01:54:14;;;;;;;6.32;3.72;;;;;;;;;;4997711;28;20041;-51
2022/02/04 01:56:40;;;;;;;5.60;3.60;;;;;;;;;;5003841;28;20041;-52
2022/02/04 01:59:05;;;;;;;5.80;3.60;;;;;;;;;;5003949;28;20260;-51
2022/02/04 02:01:31;;;;;;;5.93;3.83;;;;;;;;;;5003782;28;20030;-51
2022/02/04 02:03:58;;;;;;;5.68;3.60;;;;;;;;;;4992914;28;20277;-51
2022/02/04 02:06:43;;;;;;;6.70;3.88;;;;;;;;;;4984077;28;20421;-51
2022/02/04 02:09:08;;;;;;;6.78;3.78;;;;;;;;;;4984033;28;20030;-51
2022/02/04 02:11:34;;;;;;;5.28;3.20;;;;;;;;;;4984120;28;20049;-50
2022/02/04 02:13:59;;;;;;;6.40;4.32;;;;;;;;;;4995446;28;20034;-51
2022/02/04 02:46:13;;;;;;;5.55;3.25;;;;;;;;;;4984148;28;20110;-51
2022/02/04 02:56:58;;;;;;;4.77;2.80;;;;;;;;;;5003002;28;20030;-51
2022/02/04 02:59:19;;;;;;;4.57;2.80;;;;;;;;;;5002609;28;20280;-53
2022/02/04 03:01:48;;;;;;;5.78;3.35;;;;;;;;;;5003114;28;20034;-50
2022/02/04 03:04:15;;;;;;;4.70;2.88;;;;;;;;;;4989945;28;20184;-51
2022/02/04 03:06:41;;;;;;;4.65;3.08;;;;;;;;;;4983135;28;20050;-50
2022/02/04 03:09:06;;;;;;;4.95;2.90;;;;;;;;;;4983412;28;20489;-51
2022/02/04 03:11:33;;;;;;;5.77;3.40;;;;;;;;;;4983558;28;20415;-51
2022/02/04 03:13:58;;;;;;;4.70;3.00;;;;;;;;;;4992820;28;20708;-51
2022/02/04 03:16:24;;;;;;;4.93;3.00;;;;;;;;;;5002828;28;20076;-50
2022/02/04 03:18:51;;;;;;;4.57;2.90;;;;;;;;;;5002521;28;20029;-50
2022/02/04 03:21:22;;;;;;;5.32;3.30;;;;;;;;;;5002778;28;20121;-51
2022/02/04 03:23:53;;;;;;;4.70;3.35;;;;;;;;;;4993278;28;20037;-51
2022/02/04 03:27:08;;;;;;;5.03;3.00;;;;;;;;;;4983372;28;20117;-51
2022/02/04 03:29:04;;;;;;;5.53;3.00;;;;;;;;;;4982154;28;20026;-51
2022/02/04 03:31:35;;;;;;;4.70;3.05;;;;;;;;;;4983150;28;20053;-50
2022/02/04 03:34:02;;;;;;;4.25;2.78;;;;;;;;;;4994166;28;20145;-51
2022/02/04 03:36:27;;;;;;;5.18;2.90;;;;;;;;;;5002632;28;20018;-51
2022/02/04 03:38:53;;;;;;;5.27;3.10;;;;;;;;;;5002468;28;20041;-53
2022/02/04 03:41:18;;;;;;;4.67;2.70;;;;;;;;;;5002519;28;20269;-50
2022/02/04 03:43:43;;;;;;;4.80;2.73;;;;;;;;;;4993988;28;20387;-50
2022/02/04 03:46:08;;;;;;;4.07;2.57;;;;;;;;;;4983064;28;20280;-50
2022/02/04 03:48:34;;;;;;;4.73;2.97;;;;;;;;;;4983421;28;20273;-52
2022/02/04 03:50:59;;;;;;;4.32;2.80;;;;;;;;;;4983304;28;20277;-50
2022/02/04 03:53:24;;;;;;;4.43;3.10;;;;;;;;;;4992656;28;20041;-50
2022/02/04 03:55:49;;;;;;;4.93;3.20;;;;;;;;;;5006498;28;20452;-51
2022/02/04 03:58:15;;;;;;;4.23;2.80;;;;;;;;;;5006312;28;20257;-51
2022/02/04 04:00:40;;;;;;;4.40;2.70;;;;;;;;;;5006170;28;20268;-50
2022/02/04 04:03:05;;;;;;;4.17;2.63;;;;;;;;;;4989948;28;20269;-53
2022/02/04 04:05:31;;;;;;;4.88;2.60;;;;;;;;;;5006082;28;20280;-50
2022/02/04 04:07:56;;;;;;;5.13;3.00;;;;;;;;;;5004931;28;20486;-51
2022/02/04 04:10:25;;;;;;;4.47;2.63;;;;;;;;;;5006253;28;20048;-50
2022/02/04 04:12:50;;;;;;;4.50;2.50;;;;;;;;;;5005519;28;20029;-52
2022/02/04 04:15:17;;;;;;;3.88;2.42;;;;;;;;;;5006380;28;20033;-51
2022/02/04 04:17:44;;;;;;;4.45;2.70;;;;;;;;;;5006163;28;20156;-51
2022/02/04 04:20:13;;;;;;;4.68;2.90;;;;;;;;;;5006110;28;20033;-51
2022/02/04 04:22:38;;;;;;;4.82;2.80;;;;;;;;;;5004707;28;20026;-51
2022/02/04 04:25:04;;;;;;;3.92;2.45;;;;;;;;;;4986549;28;20018;-51
2022/02/04 04:27:30;;;;;;;4.30;2.67;;;;;;;;;;4986452;28;20073;-51
2022/02/04 04:29:55;;;;;;;4.07;2.50;;;;;;;;;;4986320;28;20032;-51
2022/02/04 04:32:20;;;;;;;4.45;2.40;;;;;;;;;;4986387;28;20038;-51
2022/02/04 04:34:45;;;;;;;4.40;2.60;;;;;;;;;;5002729;28;20492;-50
2022/02/04 04:37:10;;;;;;;4.53;2.90;;;;;;;;;;5005686;28;20026;-52
2022/02/04 04:39:47;;;;;;;3.93;2.47;;;;;;;;;;5005661;28;20285;-52
2022/02/04 04:42:16;;;;;;;4.20;2.50;;;;;;;;;;5005663;28;20284;-51
2022/02/04 05:30:55;;;;;;;5.25;2.47;;;;;;;;;;4993511;28;20032;-51
2022/02/04 05:33:20;;;;;;;4.10;2.50;;;;;;;;;;4989707;28;20034;-52
2022/02/04 05:35:45;;;;;;;3.50;2.05;;;;;;;;;;4985077;28;20026;-51
2022/02/04 05:38:14;;;;;;;4.07;2.80;;;;;;;;;;4984627;28;20039;-51
2022/02/04 05:40:43;;;;;;;3.42;2.22;;;;;;;;;;4984769;28;20405;-51
2022/02/04 05:43:16;;;;;;;3.97;2.45;;;;;;;;;;4984650;28;20153;-51
2022/02/04 05:45:50;;;;;;;3.72;2.25;;;;;;;;;;4986139;28;20026;-51
2022/02/04 05:48:16;;;;;;;4.22;2.50;;;;;;;;;;4983835;28;20041;-52
2022/02/04 05:50:55;;;;;;;3.55;2.40;;;;;;;;;;4983501;28;20022;-51
2022/02/04 05:53:26;;;;;;;3.38;2.33;;;;;;;;;;4988180;28;20053;-52
2022/02/04 05:56:02;;;;;;;4.60;2.45;;;;;;;;;;4983468;28;20018;-51
2022/02/04 05:58:38;;;;;;;3.95;2.40;;;;;;;;;;4982628;28;20488;-51
2022/02/04 06:22:20;;;;;;;3.92;2.45;;;;;;;;;;5003805;28;20053;-52
2022/02/04 06:24:46;;;;;;;3.30;2.50;;;;;;;;;;4987606;28;20100;-56
2022/02/04 06:27:11;;;;;;;3.97;2.50;;;;;;;;;;4984186;28;20095;-54
2022/02/04 06:29:36;;;;;;;4.30;2.77;;;;;;;;;;4984224;28;20752;-53
2022/02/04 06:32:02;;;;;;;4.50;3.13;;;;;;;;;;4984306;28;21599;-57
2022/02/04 06:34:27;;;;;;;4.15;2.40;;;;;;;;;;4997283;28;20844;-55
2022/02/04 06:36:53;;;;;;;5.45;2.80;;;;;;;;;;5003483;28;20034;-53
2022/02/04 06:39:18;;;;;;;4.07;2.60;;;;;;;;;;5001987;28;20041;-55
2022/02/04 06:41:44;;;;;;;5.43;2.85;;;;;;;;;;5002368;28;20018;-51
2022/02/04 06:44:09;;;;;;;4.00;2.60;;;;;;;;;;5002160;28;20026;-51
2022/02/04 06:46:34;;;;;;;4.73;2.70;;;;;;;;;;5002164;28;20542;-53
2022/02/04 06:48:59;;;;;;;4.50;2.90;;;;;;;;;;5001501;28;20013;-50
2022/02/04 06:51:24;;;;;;;5.83;3.07;;;;;;;;;;5002219;28;20037;-52
2022/02/04 06:53:50;;;;;;;4.03;2.90;;;;;;;;;;5001766;28;20037;-51
2022/02/04 06:56:15;;;;;;;4.97;3.00;;;;;;;;;;5002373;28;20033;-54
2022/02/04 06:58:40;;;;;;;5.38;3.30;;;;;;;;;;5001989;28;20014;-52
2022/02/04 07:01:05;;;;;;;4.40;2.90;;;;;;;;;;4999467;28;20105;-52
2022/02/04 07:03:32;;;;;;;5.37;3.00;;;;;;;;;;5001977;28;20265;-53
2022/02/04 07:05:58;;;;;;;3.75;2.60;;;;;;;;;;5001649;28;20300;-51
2022/02/04 07:08:33;;;;;;;5.00;2.95;;;;;;;;;;4999576;28;20018;-52
2022/02/04 07:14:01;;;;;;;4.72;3.08;;;;;;;;;;5001846;28;20784;-52
2022/02/04 07:21:35;;;;;;;6.80;3.97;;;;;;;;;;5002838;28;20036;-51
2022/02/04 07:24:00;;;;;;;4.73;2.83;;;;;;;;;;5002060;28;20673;-52
2022/02/04 07:26:26;;;;;;;6.63;3.53;;;;;;;;;;4989372;28;20361;-52
2022/02/04 07:28:53;;;;;;;5.05;3.15;;;;;;;;;;4983650;28;20034;-52
2022/02/04 07:31:19;;;;;;;5.18;3.58;;;;;;;;;;4986719;28;20045;-51
2022/02/04 07:33:49;;;;;;;5.60;3.63;;;;;;;;;;4992706;28;20034;-52
2022/02/04 07:41:35;;;;;;;5.28;3.35;;;;;;;;;;4978059;28;20038;-52
2022/02/04 07:44:00;;;;;;;5.70;3.90;;;;;;;;;;4981784;28;20037;-51
2022/02/04 07:46:26;;;;;;;6.67;4.37;;;;;;;;;;4980468;28;20023;-51
2022/02/04 07:48:51;;;;;;;5.97;4.07;;;;;;;;;;4979963;28;20269;-51
2022/02/04 07:51:17;;;;;;;5.85;3.80;;;;;;;;;;4949314;28;20041;-51
2022/02/04 07:53:42;;;;;;;6.15;4.10;;;;;;;;;;4963910;28;20432;-52
2022/02/04 07:56:07;;;;;;;6.83;4.30;;;;;;;;;;4981975;28;20353;-52
2022/02/04 07:58:32;;;;;;;6.57;4.40;;;;;;;;;;4984342;28;20276;-51
2022/02/04 08:00:59;;;;;;;6.53;4.40;;;;;;;;;;4984996;28;20026;-52
2022/02/04 08:03:35;;;;;;;7.07;4.30;;;;;;;;;;4981982;28;20037;-51
2022/02/04 08:06:07;;;;;;;6.95;4.57;;;;;;;;;;4981675;28;20449;-52
2022/02/04 08:13:45;;;;;;;7.25;5.00;;;;;;;;;;4986323;28;20025;-51
2022/02/04 08:16:56;;;;;;;8.00;5.43;;;;;;;;;;4983571;28;20100;-51
2022/02/04 08:19:56;;;;;;;8.48;5.80;;;;;;;;;;4982522;28;20053;-51
2022/02/04 08:27:41;;;;;;;8.40;5.23;;;;;;;;;;4982215;28;20022;-51
2022/02/04 08:54:12;;;;;;;9.02;5.97;;;;;;;;;;4986622;28;20045;-52
2022/02/04 08:59:15;;;;;;;9.45;6.15;;;;;;;;;;4984667;28;20109;-52
2022/02/04 09:01:47;;;;;;;9.30;5.45;;;;;;;;;;4983889;28;20014;-52
2022/02/04 09:04:17;;;;;;;8.80;5.40;;;;;;;;;;4985982;28;20058;-52
2022/02/04 09:06:49;;;;;;;7.97;5.15;;;;;;;;;;4983504;28;20057;-52
2022/02/04 09:09:28;;;;;;;8.32;5.50;;;;;;;;;;4983907;28;20128;-53
2022/02/04 09:12:03;;;;;;;7.95;5.07;;;;;;;;;;4983758;28;20424;-52
2022/02/04 09:20:26;;;;;;;8.10;5.20;;;;;;;;;;4985021;28;20104;-52
2022/02/04 09:22:39;;;;;;;7.53;5.13;;;;;;;;;;4981769;28;20038;-52
2022/02/04 09:25:05;;;;;;;8.68;5.30;;;;;;;;;;4991858;28;20033;-52
2022/02/04 09:27:30;;;;;;;7.95;4.90;;;;;;;;;;4988719;28;20568;-52
2022/02/04 09:29:55;;;;;;;7.30;5.07;;;;;;;;;;5004309;28;20156;-52
2022/02/04 09:32:20;;;;;;;7.97;4.53;;;;;;;;;;5004301;28;20083;-52
2022/02/04 09:34:46;;;;;;;7.28;4.90;;;;;;;;;;4986370;28;20038;-52
2022/02/04 09:37:11;;;;;;;7.63;4.67;;;;;;;;;;4988051;28;20034;-52
2022/02/04 09:39:36;;;;;;;8.67;5.40;;;;;;;;;;4985142;28;20038;-52
2022/02/04 09:42:01;;;;;;;8.60;5.00;;;;;;;;;;4984872;28;20288;-52
2022/02/04 09:44:27;;;;;;;6.93;4.70;;;;;;;;;;4985928;28;20361;-53
2022/02/04 09:46:54;;;;;;;8.07;5.23;;;;;;;;;;4985586;28;20022;-54
2022/02/04 09:49:26;;;;;;;7.10;4.97;;;;;;;;;;4987712;28;20033;-55
2022/02/04 10:12:06;;;;;;;8.48;4.90;;;;;;;;;;5001779;28;20056;-53
2022/02/04 10:14:01;;;;;;;7.50;4.55;;;;;;;;;;5006754;28;20045;-52
2022/02/04 10:19:15;;;;;;;9.32;4.88;;;;;;;;;;5003290;28;20025;-52
2022/02/04 10:21:40;;;;;;;8.52;5.70;;;;;;;;;;5003609;28;20021;-52
2022/02/04 10:24:06;;;;;;;10.38;5.85;;;;;;;;;;4976804;28;20431;-52
2022/02/04 10:26:31;;;;;;;12.75;6.72;;;;;;;;;;4983419;28;20030;-52
2022/02/04 10:28:56;;;;;;;10.27;6.90;;;;;;;;;;4983684;28;20018;-51
2022/02/04 10:31:22;;;;;;;12.27;7.07;;;;;;;;;;4983532;28;20282;-52
2022/02/04 10:33:47;;;;;;;9.87;7.10;;;;;;;;;;4990289;28;20308;-52
2022/02/04 10:36:31;;;;;;;10.65;7.03;;;;;;;;;;4999936;28;20803;-52
2022/02/04 10:38:56;;;;;;;11.32;7.63;;;;;;;;;;4986370;28;20018;-52
2022/02/04 10:41:29;;;;;;;9.73;7.30;;;;;;;;;;5002508;28;20037;-52
2022/02/04 10:49:42;;;;;;;10.70;6.47;;;;;;;;;;5003155;28;20197;-52
2022/02/04 10:52:18;;;;;;;10.50;6.57;;;;;;;;;;5002648;28;20034;-52
2022/02/04 10:58:01;;;;;;;9.40;6.40;;;;;;;;;;5002929;28;20036;-52
2022/02/04 11:00:40;;;;;;;9.85;6.43;;;;;;;;;;4994690;28;20029;-52
2022/02/04 11:08:24;;;;;;;11.50;6.55;;;;;;;;;;4976702;28;20035;-56
2022/02/04 11:22:07;;;;;;;14.52;6.93;;;;;;;;;;4949991;28;20097;-51
2022/02/04 11:33:37;;;;;;;10.68;6.63;;;;;;;;;;4984452;28;20530;-53
2022/02/04 11:35:41;;;;;;;11.48;6.75;;;;;;;;;;4965318;28;20039;-55
2022/02/04 11:57:15;;;;;;;10.52;6.40;;;;;;;;;;4966700;28;20034;-51
2022/02/04 11:59:47;;;;;;;10.02;6.70;;;;;;;;;;4964576;28;20061;-51
2022/02/04 12:05:05;;;;;;;9.52;6.57;;;;;;;;;;4964808;28;20030;-51
2022/02/04 12:07:40;;;;;;;11.27;6.53;;;;;;;;;;4970290;28;20054;-52
2022/02/04 12:10:11;;;;;;;10.52;6.25;;;;;;;;;;4983517;28;20026;-51
2022/02/04 12:12:52;;;;;;;10.40;7.05;;;;;;;;;;4969243;28;20035;-51
2022/02/04 12:15:37;;;;;;;12.20;6.75;;;;;;;;;;4982494;28;20044;-51
2022/02/04 12:18:05;;;;;;;10.48;6.30;;;;;;;;;;4969386;28;20023;-52
2022/02/04 12:20:46;;;;;;;9.77;6.40;;;;;;;;;;4981173;28;20116;-50
2022/02/04 12:23:31;;;;;;;11.38;6.78;;;;;;;;;;4977145;28;20716;-52
2022/02/04 12:26:04;;;;;;;10.35;6.45;;;;;;;;;;4984587;28;20451;-51
2022/02/04 12:28:48;;;;;;;10.18;6.60;;;;;;;;;;4984494;28;20078;-52
2022/02/04 12:31:14;;;;;;;8.75;6.47;;;;;;;;;;4982283;28;20033;-51
2022/02/04 12:33:46;;;;;;;11.13;7.60;;;;;;;;;;4994370;28;20038;-52
2022/02/04 12:36:15;;;;;;;11.10;7.40;;;;;;;;;;4995312;28;20027;-51
2022/02/04 12:38:41;;;;;;;10.50;6.30;;;;;;;;;;4988779;28;20554;-51
2022/02/04 12:41:06;;;;;;;11.35;6.68;;;;;;;;;;4982583;28;20042;-52
2022/02/04 12:43:37;;;;;;;12.23;7.17;;;;;;;;;;4996118;28;20019;-51
2022/02/04 12:46:03;;;;;;;12.63;6.95;;;;;;;;;;4994898;28;20583;-50
2022/02/04 12:48:28;;;;;;;13.20;7.20;;;;;;;;;;4973811;28;20117;-52
2022/02/04 12:50:54;;;;;;;11.63;7.57;;;;;;;;;;4978313;28;20147;-52
2022/02/04 12:53:23;;;;;;;11.73;7.20;;;;;;;;;;4979763;28;20294;-52
2022/02/04 12:56:01;;;;;;;;;;;;;;;;;;4985268;28;20022;-50
2022/02/04 12:58:43;;;;;;;10.75;7.10;;;;;;;;;;4992779;28;19948;-51
2022/02/04 13:12:09;;;;;;;11.13;6.80;;;;;;;;;;4969891;28;20030;-53
2022/02/04 13:14:34;;;;;;;10.98;7.32;;;;;;;;;;4972122;28;20038;-51
2022/02/04 13:16:59;;;;;;;10.70;7.07;;;;;;;;;;4985068;28;20022;-51
2022/02/04 13:19:25;;;;;;;11.33;7.20;;;;;;;;;;4989112;28;20026;-51
2022/02/04 13:21:50;;;;;;;9.63;6.40;;;;;;;;;;4981171;28;20046;-50
2022/02/04 13:24:16;;;;;;;9.43;6.30;;;;;;;;;;4952168;28;20668;-50
2022/02/04 13:26:42;;;;;;;8.73;6.75;;;;;;;;;;4968395;28;20030;-52
2022/02/04 13:29:08;;;;;;;11.17;6.90;;;;;;;;;;4970774;28;20041;-51
2022/02/04 13:31:36;;;;;;;10.98;6.93;;;;;;;;;;4970292;28;20277;-51
2022/02/04 13:34:07;;;;;;;9.27;6.22;;;;;;;;;;4970181;28;20034;-50
2022/02/04 13:37:13;;;;;;;10.43;6.68;;;;;;;;;;4970506;28;20038;-49
2022/02/04 13:39:34;;;;;;;9.38;6.32;;;;;;;;;;4967201;28;20401;-50
2022/02/04 13:50:03;;;;;;;9.73;6.60;;;;;;;;;;4969946;28;20034;-50
2022/02/04 13:55:26;;;;;;;10.30;6.82;;;;;;;;;;4969891;28;20034;-50
2022/02/04 14:03:31;;;;;;;10.45;6.50;;;;;;;;;;4969409;28;20069;-50
2022/02/04 14:06:01;;;;;;;10.02;6.30;;;;;;;;;;4978553;28;20061;-50
2022/02/04 14:11:31;;;;;;;9.25;6.35;;;;;;;;;;4928530;29;20533;-51
2022/02/04 14:13:57;;;;;;;10.23;6.40;;;;;;;;;;4961757;28;20133;-50
2022/02/04 14:16:22;;;;;;;10.00;6.35;;;;;;;;;;4982914;28;20057;-49
2022/02/04 14:18:47;;;;;;;10.23;6.40;;;;;;;;;;4973075;28;20034;-51
2022/02/04 14:21:13;;;;;;;8.77;6.40;;;;;;;;;;4969127;28;20652;-49
2022/02/04 14:23:40;;;;;;;9.93;5.90;;;;;;;;;;4969414;28;20481;-51
2022/02/04 14:26:12;;;;;;;11.52;6.05;;;;;;;;;;4972798;28;20134;-50
2022/02/04 14:31:14;;;;;;;9.98;6.68;;;;;;;;;;4968412;28;20021;-50
2022/02/04 15:05:36;;;;;;;8.93;6.13;;;;;;;;;;4956472;28;20402;-50
2022/02/04 15:08:05;;;;;;;8.32;5.75;;;;;;;;;;4987091;28;20102;-50
2022/02/04 15:10:31;;;;;;;9.73;6.03;;;;;;;;;;4982465;28;20022;-50
2022/02/04 15:12:57;;;;;;;10.32;6.05;;;;;;;;;;4986285;28;20038;-50
2022/02/04 15:15:22;;;;;;;9.32;6.05;;;;;;;;;;4968599;28;20031;-51
2022/02/04 15:17:47;;;;;;;8.55;6.03;;;;;;;;;;4968557;28;20017;-49
2022/02/04 15:20:13;;;;;;;9.20;6.20;;;;;;;;;;4968509;28;20077;-50
2022/02/04 15:22:38;;;;;;;8.90;5.90;;;;;;;;;;4972321;28;20644;-51
2022/02/04 15:25:11;;;;;;;8.00;6.00;;;;;;;;;;4985462;28;20065;-50
2022/02/04 15:27:40;;;;;;;9.65;6.70;;;;;;;;;;4968488;28;20301;-51
2022/02/04 15:30:06;;;;;;;8.57;6.03;;;;;;;;;;4968435;28;20030;-51
2022/02/04 15:32:31;;;;;;;10.27;6.32;;;;;;;;;;4975401;28;20026;-50
2022/02/04 15:34:56;;;;;;;9.10;5.87;;;;;;;;;;4987558;28;20038;-51
2022/02/04 15:37:22;;;;;;;8.50;5.88;;;;;;;;;;4987792;28;20026;-52
2022/02/04 15:39:47;;;;;;;8.20;5.95;;;;;;;;;;4987819;28;20022;-51
2022/02/04 15:42:15;;;;;;;13.13;8.55;;;;;;;;;;4985486;28;20050;-51
2022/02/04 15:44:56;;;;;;;9.07;6.72;;;;;;;;;;4987075;28;20774;-52
2022/02/04 15:47:35;;;;;;;8.60;6.38;;;;;;;;;;4979331;28;20031;-51
2022/02/04 15:50:19;;;;;;;8.75;6.47;;;;;;;;;;4991554;28;20034;-51
2022/02/04 15:53:14;;;;;;;7.80;5.90;;;;;;;;;;4961707;28;20042;-51
2022/02/04 15:56:10;;;;;;;9.52;6.45;;;;;;;;;;4986585;28;20034;-51
2022/02/04 15:58:55;;;;;;;11.73;7.40;;;;;;;;;;4989143;28;20034;-50
2022/02/04 16:01:24;;;;;;;10.65;6.35;;;;;;;;;;4991810;28;20065;-52
2022/02/04 16:04:06;;;;;;;10.10;6.18;;;;;;;;;;4988913;28;20073;-51
2022/02/04 16:06:31;;;;;;;8.55;6.00;;;;;;;;;;4987630;28;20050;-51
2022/02/04 16:08:57;;;;;;;11.57;6.80;;;;;;;;;;4980306;28;20038;-50
2022/02/04 16:11:52;;;;;;;9.82;6.60;;;;;;;;;;4980157;28;20023;-50
2022/02/04 16:14:29;;;;;;;8.90;6.18;;;;;;;;;;4965989;28;20069;-50
2022/02/04 16:17:00;;;;;;;10.65;6.20;;;;;;;;;;4988691;28;20023;-50
2022/02/04 16:19:30;;;;;;;9.57;6.03;;;;;;;;;;4971391;28;20404;-51
2022/02/04 16:29:48;;;;;;;8.52;6.05;;;;;;;;;;4987804;28;20029;-50
2022/02/04 16:32:13;;;;;;;10.25;6.18;;;;;;;;;;4988645;28;20027;-50
2022/02/04 16:34:39;;;;;;;8.87;6.20;;;;;;;;;;4987644;28;20069;-50
2022/02/04 16:37:15;;;;;;;10.13;6.65;;;;;;;;;;4987478;28;20803;-51
2022/02/04 16:39:42;;;;;;;8.73;5.80;;;;;;;;;;4987806;28;20467;-51
2022/02/04 16:42:14;;;;;;;8.45;5.40;;;;;;;;;;4988180;28;20034;-50
2022/02/04 16:44:40;;;;;;;8.63;5.38;;;;;;;;;;4988882;28;20687;-50
2022/02/04 16:47:05;;;;;;;10.18;6.30;;;;;;;;;;4989245;28;20034;-50
2022/02/04 16:49:30;;;;;;;9.18;5.60;;;;;;;;;;4971212;28;20019;-50
2022/02/04 16:51:56;;;;;;;7.57;5.90;;;;;;;;;;4968983;28;20460;-51
2022/02/04 16:54:23;;;;;;;8.95;5.75;;;;;;;;;;4963359;28;20703;-50
2022/02/04 16:56:48;;;;;;;24.92;7.47;;;;;;;;;;4972617;28;20070;-50
2022/02/04 16:59:13;;;;;;;18.57;6.73;;;;;;;;;;4966983;28;20121;-52
2022/02/04 17:01:39;;;;;;;12.87;6.30;;;;;;;;;;4968271;28;20270;-51
2022/02/04 17:04:05;;;;;;;8.65;6.07;;;;;;;;;;4982386;28;20033;-50
2022/02/04 17:06:36;;;;;;;10.88;6.70;;;;;;;;;;4979252;28;20482;-50
2022/02/04 17:09:20;;;;;;;13.35;6.68;;;;;;;;;;4982738;28;20105;-51
2022/02/04 17:11:47;;;;;;;11.45;6.20;;;;;;;;;;4985977;28;20022;-50
2022/02/04 17:14:12;;;;;;;8.90;6.07;;;;;;;;;;4971448;28;20393;-51
2022/02/04 17:16:46;;;;;;;11.27;6.00;;;;;;;;;;4975011;28;20022;-51
2022/02/04 17:19:18;;;;;;;10.88;6.10;;;;;;;;;;4968800;28;20296;-50
2022/02/04 17:21:43;;;;;;;8.95;5.82;;;;;;;;;;4967511;28;20501;-51
2022/02/04 17:24:13;;;;;;;12.25;6.43;;;;;;;;;;4981670;28;20019;-51
2022/02/04 17:26:40;;;;;;;11.75;6.30;;;;;;;;;;4986915;28;20030;-52
2022/02/04 17:29:05;;;;;;;12.18;6.60;;;;;;;;;;4983138;28;20018;-50
2022/02/04 17:31:30;;;;;;;9.37;6.20;;;;;;;;;;4984597;28;20029;-50
2022/02/04 17:33:56;;;;;;;9.13;5.80;;;;;;;;;;4984578;28;20040;-50
2022/02/04 17:36:21;;;;;;;10.73;6.68;;;;;;;;;;4984370;28;20049;-52
2022/02/04 17:38:47;;;;;;;9.37;5.70;;;;;;;;;;4984277;28;20586;-48
2022/02/04 17:41:13;;;;;;;9.80;6.60;;;;;;;;;;4981730;28;20393;-51
2022/02/04 17:43:40;;;;;;;10.57;6.88;;;;;;;;;;4973034;28;20062;-52
2022/02/04 17:46:06;;;;;;;9.23;6.07;;;;;;;;;;4983264;28;20040;-52
2022/02/04 17:48:43;;;;;;;10.23;6.67;;;;;;;;;;4973568;28;20670;-51
2022/02/04 17:51:30;;;;;;;9.00;6.85;;;;;;;;;;4966931;28;20122;-52
2022/02/04 17:53:59;;;;;;;8.80;5.95;;;;;;;;;;4974873;28;20703;-51
2022/02/04 17:59:33;;;;;;;10.60;6.38;;;;;;;;;;4967195;28;20070;-52
2022/02/04 18:07:12;;;;;;;10.20;6.32;;;;;;;;;;4982347;28;20087;-52
2022/02/04 18:09:38;;;;;;;9.25;6.13;;;;;;;;;;4985190;28;20030;-52
2022/02/04 18:12:04;;;;;;;11.88;6.47;;;;;;;;;;4986175;28;20018;-50
2022/02/04 18:14:29;;;;;;;11.13;6.00;;;;;;;;;;4985878;28;20048;-50
2022/02/04 18:16:56;;;;;;;9.02;6.13;;;;;;;;;;4985984;28;20058;-50
2022/02/04 18:19:21;;;;;;;8.10;6.37;;;;;;;;;;4983007;28;20576;-50
2022/02/04 18:21:46;;;;;;;10.00;6.47;;;;;;;;;;4979298;28;20281;-50
2022/02/04 18:24:11;;;;;;;10.00;6.40;;;;;;;;;;4966706;28;20056;-52
2022/02/04 18:26:37;;;;;;;8.07;5.93;;;;;;;;;;4979884;28;20428;-50
2022/02/04 18:29:03;;;;;;;9.43;6.65;;;;;;;;;;4975339;28;20277;-50
2022/02/04 18:31:29;;;;;;;9.15;6.55;;;;;;;;;;4982376;28;20022;-50
2022/02/04 18:33:56;;;;;;;9.30;6.30;;;;;;;;;;4985559;28;20033;-51
2022/02/04 18:36:21;;;;;;;9.50;6.82;;;;;;;;;;4985934;28;20113;-50
2022/02/04 18:38:54;;;;;;;8.73;6.60;;;;;;;;;;4985890;28;20117;-50
2022/02/04 18:41:47;;;;;;;9.27;6.85;;;;;;;;;;4985564;28;20069;-50
2022/02/04 18:44:12;;;;;;;9.10;6.57;;;;;;;;;;4985370;28;20045;-49
2022/02/04 18:47:01;;;;;;;10.05;6.47;;;;;;;;;;4985679;28;20726;-50
2022/02/04 18:49:32;;;;;;;10.23;7.30;;;;;;;;;;4981895;28;20178;-52
2022/02/04 18:59:29;;;;;;;9.70;7.28;;;;;;;;;;4966160;28;20019;-51
2022/02/04 19:01:54;;;;;;;10.55;7.15;;;;;;;;;;4965964;28;20045;-50
2022/02/04 19:04:27;;;;;;;9.82;7.50;;;;;;;;;;4965955;28;20485;-50
2022/02/04 19:07:00;;;;;;;9.90;7.05;;;;;;;;;;4981027;28;20057;-51
2022/02/04 19:09:26;;;;;;;11.13;7.68;;;;;;;;;;4969587;28;20089;-50
2022/02/04 19:11:55;;;;;;;11.57;7.65;;;;;;;;;;4985055;28;20026;-56
2022/02/04 19:19:46;;;;;;;10.50;7.47;;;;;;;;;;4965775;28;20109;-50
2022/02/04 19:24:36;;;;;;;11.37;8.37;;;;;;;;;;4965283;28;20022;-51
2022/02/04 19:27:02;;;;;;;10.23;7.82;;;;;;;;;;4965603;28;20051;-50
2022/02/04 19:29:28;;;;;;;11.20;8.00;;;;;;;;;;4965874;28;20069;-50
2022/02/04 19:31:55;;;;;;;11.75;7.70;;;;;;;;;;4965616;28;20027;-54
2022/02/04 19:34:21;;;;;;;11.05;8.00;;;;;;;;;;4973470;28;20108;-51
2022/02/04 19:36:46;;;;;;;9.57;7.55;;;;;;;;;;4968975;28;20492;-50
2022/02/04 19:39:12;;;;;;;10.23;7.73;;;;;;;;;;4982267;28;20117;-51
2022/02/04 19:41:39;;;;;;;11.90;7.93;;;;;;;;;;4983283;28;20858;-51
2022/02/04 19:44:04;;;;;;;10.68;7.63;;;;;;;;;;4983145;28;20027;-52
2022/02/04 19:46:34;;;;;;;12.48;8.48;;;;;;;;;;4984764;28;20030;-53
2022/02/04 19:49:04;;;;;;;;;;;;;;;;;;4983882;28;20039;-52
2022/02/04 19:51:40;;;;;;;10.77;8.20;;;;;;;;;;4966432;28;19917;-52
2022/02/04 19:54:44;;;;;;;12.65;8.43;;;;;;;;;;4974880;28;20038;-50
2022/02/04 20:23:55;;;;;;;13.15;9.27;;;;;;;;;;4985262;28;20096;-52
2022/02/04 20:26:20;;;;;;;13.80;9.68;;;;;;;;;;4985261;28;20033;-56
2022/02/04 20:28:46;;;;;;;13.63;9.68;;;;;;;;;;4986237;28;20026;-58
2022/02/04 20:31:11;;;;;;;15.93;10.23;;;;;;;;;;4985148;28;20524;-56
2022/02/04 20:33:36;;;;;;;12.20;8.87;;;;;;;;;;4986208;28;20053;-56
2022/02/04 20:36:02;;;;;;;14.57;10.07;;;;;;;;;;4980527;28;20278;-56
2022/02/04 20:38:33;;;;;;;13.90;9.70;;;;;;;;;;4968888;28;20320;-56
2022/02/04 20:41:08;;;;;;;15.13;9.88;;;;;;;;;;4969378;28;20634;-56
2022/02/04 20:43:33;;;;;;;13.77;10.18;;;;;;;;;;4974173;28;20045;-57
2022/02/04 20:45:59;;;;;;;15.73;10.27;;;;;;;;;;4989219;28;20396;-55
2022/02/04 20:48:32;;;;;;;13.33;9.80;;;;;;;;;;4977481;28;20289;-56
2022/02/04 20:50:57;;;;;;;12.90;10.43;;;;;;;;;;4969287;28;20162;-55
2022/02/04 20:53:22;;;;;;;14.55;9.95;;;;;;;;;;4971623;28;20121;-53
2022/02/04 20:55:47;;;;;;;15.47;10.37;;;;;;;;;;4968515;28;20026;-53
2022/02/04 20:58:13;;;;;;;19.17;11.00;;;;;;;;;;4968488;28;20409;-53
2022/02/04 21:00:38;;;;;;;14.70;10.52;;;;;;;;;;4968731;28;20278;-54
2022/02/04 21:03:08;;;;;;;16.63;11.13;;;;;;;;;;4968173;28;20113;-54
2022/02/04 21:05:58;;;;;;;15.32;10.85;;;;;;;;;;4972520;28;20336;-53
2022/02/04 21:16:12;;;;;;;14.07;10.67;;;;;;;;;;4987371;28;20030;-53
2022/02/04 21:18:37;;;;;;;16.42;11.65;;;;;;;;;;4987714;28;20083;-54
2022/02/04 21:21:02;;;;;;;15.30;11.15;;;;;;;;;;4969801;28;20022;-53
2022/02/04 21:23:27;;;;;;;16.57;12.10;;;;;;;;;;4987351;28;20030;-55
2022/02/04 21:25:54;;;;;;;17.42;12.23;;;;;;;;;;4985891;28;20266;-55
2022/02/04 21:28:23;;;;;;;16.35;11.55;;;;;;;;;;4987208;28;20114;-53
2022/02/04 21:30:48;;;;;;;16.50;12.05;;;;;;;;;;4987098;28;20022;-55
2022/02/04 21:33:19;;;;;;;17.42;12.13;;;;;;;;;;4986744;28;20111;-52
2022/02/04 21:38:29;;;;;;;17.85;12.27;;;;;;;;;;4968154;28;20022;-54
2022/02/04 21:40:54;;;;;;;16.42;12.27;;;;;;;;;;4967730;28;20035;-53
2022/02/04 21:43:19;;;;;;;17.47;12.97;;;;;;;;;;4967145;28;20525;-54
2022/02/04 21:45:48;;;;;;;17.50;12.82;;;;;;;;;;4972580;28;20280;-52
2022/02/04 21:48:14;;;;;;;19.45;13.60;;;;;;;;;;4986824;28;20037;-54
2022/02/04 21:50:42;;;;;;;19.60;13.35;;;;;;;;;;4987093;28;20038;-54
2022/02/04 21:53:07;;;;;;;19.13;13.25;;;;;;;;;;4967888;28;20022;-55
2022/02/04 21:55:32;;;;;;;18.27;12.63;;;;;;;;;;4967299;28;20037;-52
2022/02/04 21:57:57;;;;;;;16.33;12.60;;;;;;;;;;4967329;28;20783;-52
2022/02/04 22:00:23;;;;;;;19.93;14.30;;;;;;;;;;4966787;28;20389;-55